Time;durP1;ratioP1;P1;durP2;ratioP2;P2;SDS_P1;SDS_P2;PMS_P1;PMS_P2;Temp;Humidity;BMP_temperature;BMP_pressure;BME280_temperature;BME280_humidity;BME280_pressure;Samples;Min_cycle;Max_cycle;Signal;HPM_P1;HPM_P2
2024/01/27 00:00:35;;;;;;;5.90;1.80;;;;;;;3.82;82.87;63321.34;5073144;28;20215;-55
2024/01/27 00:03:01;;;;;;;3.80;1.83;;;;;;;3.70;83.45;63310.78;5072761;28;20417;-56
2024/01/27 00:05:28;;;;;;;9.93;1.83;;;;;;;3.68;83.83;63305.59;5054874;28;20185;-55
2024/01/27 00:07:53;;;;;;;3.13;2.07;;;;;;;3.72;83.38;63312.41;5073329;28;20708;-56
2024/01/27 00:10:19;;;;;;;4.77;1.90;;;;;;;3.67;82.98;63305.06;5055172;28;20228;-55
2024/01/27 00:12:44;;;;;;;5.17;2.10;;;;;;;3.77;82.37;63315.38;5072939;28;20239;-54
2024/01/27 00:15:10;;;;;;;3.47;1.90;;;;;;;3.81;81.83;63322.75;5054986;28;20196;-55
2024/01/27 00:17:36;;;;;;;3.47;2.13;;;;;;;3.79;81.61;63320.03;5072774;28;20210;-54
2024/01/27 00:20:02;;;;;;;4.00;1.93;;;;;;;3.80;82.35;63321.66;5072620;28;20193;-54
2024/01/27 00:22:28;;;;;;;5.80;1.73;;;;;;;3.77;81.18;63315.91;5072447;28;20223;-54
2024/01/27 00:24:54;;;;;;;3.60;1.77;;;;;;;3.81;81.42;63322.75;5072659;28;20196;-55
2024/01/27 00:27:19;;;;;;;6.97;1.73;;;;;;;3.85;81.29;63329.06;5054628;28;20262;-53
2024/01/27 00:29:45;;;;;;;4.23;1.90;;;;;;;3.79;81.52;63320.03;5072831;28;20197;-53
2024/01/27 00:32:10;;;;;;;5.57;2.03;;;;;;;3.88;81.58;63327.34;5054684;28;20221;-55
2024/01/27 00:34:36;;;;;;;8.87;1.80;;;;;;;4.02;81.97;63340.06;5072561;28;20698;-54
2024/01/27 00:37:02;;;;;;;3.73;1.87;;;;;;;4.09;81.53;63353.19;5072522;28;20214;-57
2024/01/27 00:39:28;;;;;;;4.57;1.83;;;;;;;3.96;82.48;63336.03;5072512;28;20202;-56
2024/01/27 00:41:55;;;;;;;8.70;2.47;;;;;;;4.06;83.15;63347.44;5072187;28;20215;-55
2024/01/27 00:44:20;;;;;;;6.63;1.93;;;;;;;4.02;81.94;63345.56;5054779;28;20230;-56
2024/01/27 00:46:46;;;;;;;7.27;2.67;;;;;;;4.08;83.10;63349.06;5072152;28;20205;-55
2024/01/27 00:49:11;;;;;;;5.70;2.77;;;;;;;4.24;85.10;63368.97;5072165;28;20200;-56
2024/01/27 00:51:37;;;;;;;8.50;3.00;;;;;;;4.28;84.55;63370.28;5071266;28;20246;-56
2024/01/27 00:54:02;;;;;;;6.83;2.57;;;;;;;4.12;82.57;63353.97;5071900;28;20185;-55
2024/01/27 00:56:28;;;;;;;2.73;1.50;;;;;;;4.17;80.65;63361.34;5072335;28;20193;-55
2024/01/27 00:58:53;;;;;;;4.53;2.00;;;;;;;4.19;80.87;63358.53;5072466;28;20684;-55
2024/01/27 01:01:19;;;;;;;5.73;2.40;;;;;;;4.14;81.63;63358.09;5072012;28;20614;-56
2024/01/27 01:03:45;;;;;;;5.03;1.83;;;;;;;4.26;80.40;63371.16;5071786;28;20220;-56
2024/01/27 01:06:11;;;;;;;8.33;1.87;;;;;;;4.57;78.50;63404.28;5071981;28;20259;-54
2024/01/27 01:08:37;;;;;;;2.83;1.73;;;;;;;4.42;78.54;63383.00;5053936;28;20702;-54
2024/01/27 01:11:02;;;;;;;7.17;2.40;;;;;;;4.41;82.79;63387.44;5053896;28;20207;-58
2024/01/27 01:13:28;;;;;;;3.27;2.00;;;;;;;4.13;78.64;63357.53;5071639;28;20239;-55
2024/01/27 01:15:53;;;;;;;7.20;2.20;;;;;;;4.17;79.30;63358.84;5071879;28;20196;-55
2024/01/27 01:18:19;;;;;;;5.30;2.37;;;;;;;4.14;80.17;63356.13;5072137;28;20616;-53
2024/01/27 01:20:44;;;;;;;6.40;2.13;;;;;;;4.10;80.90;63354.28;5053788;28;20659;-54
2024/01/27 01:23:10;;;;;;;8.60;2.10;;;;;;;4.12;81.92;63353.97;5053809;28;20590;-53
2024/01/27 01:25:35;;;;;;;4.63;1.90;;;;;;;4.11;82.26;63352.88;5071971;28;20191;-54
2024/01/27 01:28:01;;;;;;;4.17;1.90;;;;;;;4.11;82.92;63352.34;5071719;28;20643;-54
2024/01/27 01:30:26;;;;;;;3.47;1.60;;;;;;;4.19;82.57;63361.03;5071643;28;20593;-56
2024/01/27 01:32:52;;;;;;;4.30;2.33;;;;;;;4.17;84.07;63361.91;5071488;28;20302;-55
2024/01/27 01:35:18;;;;;;;5.63;2.50;;;;;;;4.24;83.42;63366.47;5071414;28;20600;-56
2024/01/27 01:37:43;;;;;;;4.30;2.90;;;;;;;4.24;85.80;63369.50;5071450;28;20204;-55
2024/01/27 01:40:09;;;;;;;4.97;1.83;;;;;;;4.33;83.55;63378.75;5071618;28;20202;-55
2024/01/27 01:42:34;;;;;;;2.80;1.97;;;;;;;4.34;83.26;63377.34;5071843;28;20215;-55
2024/01/27 01:45:00;;;;;;;7.57;2.63;;;;;;;4.43;82.11;63387.13;5071452;28;20189;-55
2024/01/27 01:47:27;;;;;;;7.67;2.10;;;;;;;4.61;81.45;63408.66;5071131;28;20216;-55
2024/01/27 01:49:52;;;;;;;5.97;2.60;;;;;;;4.57;80.90;63401.81;5071203;28;20199;-55
2024/01/27 01:52:20;;;;;;;5.60;1.90;;;;;;;4.76;79.69;63424.97;5070280;28;20200;-55
2024/01/27 01:54:50;;;;;;;6.87;1.80;;;;;;;4.81;79.37;63430.41;5071369;28;20219;-54
2024/01/27 01:57:16;;;;;;;4.83;2.90;;;;;;;4.83;78.78;63430.09;5071487;28;20219;-56
2024/01/27 01:59:42;;;;;;;7.93;3.67;;;;;;;4.90;78.24;63440.22;5071170;28;20591;-56
2024/01/27 02:02:08;;;;;;;9.20;4.77;;;;;;;4.83;79.48;63430.63;5070880;28;20223;-53
2024/01/27 02:04:45;;;;;;;10.90;4.47;;;;;;;4.69;81.67;63417.34;5071070;28;20193;-53
2024/01/27 02:07:12;;;;;;;13.80;5.27;;;;;;;4.51;81.68;63398.31;5071106;28;20219;-56
2024/01/27 02:09:37;;;;;;;8.03;4.17;;;;;;;4.57;81.07;63404.28;5052969;28;20209;-54
2024/01/27 02:14:48;;;;;;;8.20;3.50;;;;;;;4.25;80.85;63370.59;5071183;28;20554;-53
2024/01/27 02:17:14;;;;;;;6.17;3.83;;;;;;;4.16;82.89;63360.28;5078068;22;20228;-54
2024/01/27 02:19:40;;;;;;;9.57;3.70;;;;;;;4.06;83.91;63349.41;5070906;28;20270;-55
2024/01/27 02:22:06;;;;;;;6.33;3.80;;;;;;;3.88;84.57;63332.84;5052926;28;20309;-60
2024/01/27 02:24:31;;;;;;;10.77;3.43;;;;;;;3.94;84.56;63336.34;5070940;28;20184;-55
2024/01/27 02:26:57;;;;;;;9.17;4.07;;;;;;;4.00;85.89;63342.88;5071059;28;20602;-55
2024/01/27 02:29:23;;;;;;;12.60;4.50;;;;;;;4.08;85.79;63351.56;5070718;28;20268;-55
2024/01/27 02:31:48;;;;;;;7.57;3.73;;;;;;;4.03;84.14;63344.19;5070970;28;20216;-56
2024/01/27 02:34:14;;;;;;;10.73;4.23;;;;;;;3.91;84.31;63328.66;5070690;28;20194;-55
2024/01/27 02:36:39;;;;;;;5.07;3.40;;;;;;;3.83;86.70;63324.38;5070832;28;20200;-54
2024/01/27 02:39:05;;;;;;;8.97;4.17;;;;;;;3.57;87.43;63294.19;5070590;28;20232;-55
2024/01/27 02:41:35;;;;;;;8.93;3.97;;;;;;;3.12;92.90;63250.81;5070634;28;20200;-57
2024/01/27 02:44:00;;;;;;;6.93;3.73;;;;;;;3.33;90.20;63271.13;5070447;28;20207;-56
2024/01/27 02:46:26;;;;;;;7.97;4.47;;;;;;;3.38;93.63;63274.09;5070903;28;20189;-57
2024/01/27 02:48:52;;;;;;;6.10;3.77;;;;;;;3.56;89.90;63295.03;5070459;28;20212;-55
2024/01/27 02:51:20;;;;;;;8.20;4.40;;;;;;;3.37;91.50;63273.00;5052645;28;20246;-55
2024/01/27 02:53:46;;;;;;;10.60;4.10;;;;;;;3.39;92.99;63272.16;5070422;28;20691;-54
2024/01/27 02:56:11;;;;;;;11.17;4.83;;;;;;;3.38;91.83;63274.09;5070663;28;20205;-53
2024/01/27 02:58:37;;;;;;;9.83;4.47;;;;;;;3.27;93.17;63261.59;5070236;28;20309;-55
2024/01/27 03:01:02;;;;;;;8.03;4.00;;;;;;;3.22;94.14;63258.66;5070537;28;20202;-54
2024/01/27 03:03:29;;;;;;;8.97;3.73;;;;;;;3.13;95.66;63249.41;5070048;28;20220;-54
2024/01/27 03:05:54;;;;;;;9.60;4.80;;;;;;;3.29;95.91;63266.78;5070187;28;20206;-53
2024/01/27 03:08:20;;;;;;;11.03;5.07;;;;;;;3.33;95.79;63268.66;5070184;28;20589;-55
2024/01/27 03:10:45;;;;;;;9.27;4.20;;;;;;;3.42;94.68;63277.88;5070265;28;20197;-55
2024/01/27 03:13:11;;;;;;;9.77;4.23;;;;;;;3.19;95.59;63255.41;5070154;28;20208;-55
2024/01/27 03:15:37;;;;;;;12.90;4.80;;;;;;;3.19;97.51;63255.94;5071971;28;20712;-55
2024/01/27 03:18:04;;;;;;;10.60;4.50;;;;;;;3.10;97.17;63243.13;5073517;28;20216;-56
2024/01/27 03:20:31;;;;;;;12.47;5.37;;;;;;;3.04;97.52;63237.16;5073693;28;20288;-59
2024/01/27 03:22:57;;;;;;;9.83;4.53;;;;;;;2.98;99.44;63230.66;5073365;28;20221;-57
2024/01/27 03:25:25;;;;;;;10.07;4.30;;;;;;;2.96;100.00;63230.41;5073731;28;20192;-55
2024/01/27 03:27:51;;;;;;;12.13;4.70;;;;;;;3.06;97.36;63243.75;5055590;28;20602;-53
2024/01/27 03:30:18;;;;;;;8.10;4.87;;;;;;;3.01;96.86;63236.38;5055490;28;20281;-56
2024/01/27 03:32:43;;;;;;;5.90;3.37;;;;;;;3.17;96.63;63253.22;5073575;28;20286;-55
2024/01/27 03:35:09;;;;;;;10.00;4.03;;;;;;;3.22;94.23;63259.19;5073508;28;20197;-55
2024/01/27 03:37:35;;;;;;;5.77;2.60;;;;;;;3.52;91.98;63288.19;5073496;28;20208;-55
2024/01/27 03:40:01;;;;;;;3.03;1.67;;;;;;;3.73;92.35;63314.06;5073468;28;20224;-54
2024/01/27 03:42:26;;;;;;;4.10;1.70;;;;;;;3.94;91.27;63333.88;5073338;28;20217;-54
2024/01/27 03:44:52;;;;;;;5.93;2.30;;;;;;;4.05;92.45;63348.31;5073331;28;20190;-54
2024/01/27 03:47:20;;;;;;;2.03;1.20;;;;;;;4.14;95.78;63358.63;5073239;28;20299;-53
2024/01/27 03:49:46;;;;;;;3.57;1.20;;;;;;;4.21;96.66;63365.69;5073319;28;20185;-53
2024/01/27 03:52:11;;;;;;;4.87;1.13;;;;;;;4.23;100.00;63367.88;5073453;28;20221;-55
2024/01/27 03:54:40;;;;;;;3.27;1.30;;;;;;;4.32;100.00;63374.63;5073483;28;20192;-53
2024/01/27 03:57:06;;;;;;;2.80;1.67;;;;;;;4.34;100.00;63379.84;5073120;28;20242;-54
2024/01/27 03:59:32;;;;;;;2.53;1.60;;;;;;;4.43;100.00;63389.06;5073145;28;20218;-54
2024/01/27 04:01:57;;;;;;;3.23;1.40;;;;;;;4.28;100.00;63373.31;5073037;28;20274;-53
2024/01/27 04:04:23;;;;;;;5.03;1.73;;;;;;;4.43;100.00;63387.13;5073078;28;20187;-54
2024/01/27 04:06:49;;;;;;;3.17;1.57;;;;;;;4.53;100.00;63400.50;5055016;28;20196;-53
2024/01/27 04:09:15;;;;;;;2.30;1.30;;;;;;;4.42;100.00;63385.50;5073003;28;20650;-53
2024/01/27 04:11:41;;;;;;;1.30;0.83;;;;;;;4.33;100.00;63376.25;5072983;28;20715;-54
2024/01/27 04:14:07;;;;;;;2.37;1.10;;;;;;;4.51;100.00;63395.28;5072926;28;20183;-55
2024/01/27 04:16:33;;;;;;;2.43;1.40;;;;;;;4.39;100.00;63382.78;5073403;28;20224;-54
2024/01/27 04:19:00;;;;;;;3.47;1.10;;;;;;;4.40;100.00;63381.38;5072781;28;20639;-54
2024/01/27 04:21:25;;;;;;;2.30;1.33;;;;;;;4.54;100.00;63401.59;5072667;28;20279;-53
2024/01/27 04:23:51;;;;;;;6.33;1.33;;;;;;;4.70;100.00;63419.00;5072842;28;20653;-54
2024/01/27 04:26:16;;;;;;;5.47;1.73;;;;;;;4.73;100.00;63417.25;5072931;28;20659;-56
2024/01/27 04:28:42;;;;;;;3.30;1.57;;;;;;;4.75;100.00;63419.44;5038080;28;20224;-56
2024/01/27 04:31:07;;;;;;;2.67;1.47;;;;;;;4.78;100.00;63425.22;5072819;28;20203;-56
2024/01/27 04:33:33;;;;;;;1.93;1.20;;;;;;;4.56;100.00;63398.22;5072503;28;20226;-56
2024/01/27 04:35:59;;;;;;;3.30;1.37;;;;;;;4.76;100.00;63424.97;5072575;28;20226;-55
2024/01/27 04:38:24;;;;;;;3.53;1.57;;;;;;;4.91;100.00;63441.28;5072426;28;20208;-55
2024/01/27 04:40:51;;;;;;;3.33;1.43;;;;;;;4.89;100.00;63437.16;5054771;28;20228;-54
2024/01/27 04:43:18;;;;;;;5.87;1.77;;;;;;;4.62;100.00;63409.75;5072199;28;20600;-57
2024/01/27 04:45:44;;;;;;;2.77;1.23;;;;;;;4.51;100.00;63395.81;5054519;28;20203;-55
2024/01/27 04:48:10;;;;;;;5.83;1.83;;;;;;;4.77;100.00;63423.56;5072238;28;20294;-56
2024/01/27 04:50:35;;;;;;;3.40;1.47;;;;;;;4.88;100.00;63436.09;5072031;28;20201;-55
2024/01/27 04:53:01;;;;;;;4.03;1.50;;;;;;;4.66;100.00;63414.09;5072213;28;20212;-54
2024/01/27 04:55:27;;;;;;;6.37;1.57;;;;;;;4.48;100.00;63395.06;5072293;28;20665;-55
2024/01/27 04:57:53;;;;;;;1.57;1.27;;;;;;;4.50;100.00;63399.75;5072044;28;20220;-54
2024/01/27 05:00:19;;;;;;;2.10;1.13;;;;;;;4.80;100.00;63427.38;5072234;28;20333;-54
2024/01/27 05:02:46;;;;;;;6.07;1.37;;;;;;;4.81;100.00;63427.91;5072133;28;20236;-53
2024/01/27 05:05:11;;;;;;;4.67;1.30;;;;;;;4.83;100.00;63430.63;5072167;28;20232;-55
2024/01/27 05:07:38;;;;;;;3.60;1.40;;;;;;;4.98;100.00;63449.47;5071939;28;20770;-54
2024/01/27 05:10:05;;;;;;;2.43;1.50;;;;;;;4.83;100.00;63432.59;5054138;28;20242;-52
2024/01/27 05:12:30;;;;;;;3.33;2.07;;;;;;;4.79;100.00;63431.28;5071801;28;20209;-55
2024/01/27 05:14:57;;;;;;;3.30;1.43;;;;;;;4.94;100.00;63444.56;5053739;28;20236;-54
2024/01/27 05:17:22;;;;;;;2.83;1.47;;;;;;;5.25;100.00;63475.25;5071744;28;20652;-53
2024/01/27 05:19:50;;;;;;;4.43;1.60;;;;;;;5.33;100.00;63486.47;5071627;28;20192;-53
2024/01/27 05:22:15;;;;;;;3.20;2.30;;;;;;;5.32;100.00;63480.38;5053843;28;20278;-53
2024/01/27 05:24:41;;;;;;;4.57;2.73;;;;;;;5.21;100.00;63473.97;5071574;28;20723;-59
2024/01/27 05:27:06;;;;;;;5.47;2.63;;;;;;;5.10;100.00;63462.53;5071745;28;20219;-55
2024/01/27 05:29:32;;;;;;;8.57;2.83;;;;;;;5.20;100.00;63469.81;5071744;28;20310;-55
2024/01/27 05:31:58;;;;;;;6.73;2.93;;;;;;;5.17;100.00;63469.06;5053539;28;20223;-57
2024/01/27 05:34:24;;;;;;;5.50;2.77;;;;;;;5.08;100.00;63460.34;5071834;28;20258;-53
2024/01/27 05:36:50;;;;;;;6.03;3.00;;;;;;;5.18;100.00;63465.13;5071366;28;20199;-54
2024/01/27 05:39:16;;;;;;;6.50;3.40;;;;;;;4.93;100.00;63444.00;5071117;28;20769;-54
2024/01/27 05:41:41;;;;;;;7.83;2.80;;;;;;;4.63;100.00;63411.38;5071496;28;20192;-54
2024/01/27 05:44:07;;;;;;;7.83;2.83;;;;;;;4.67;100.00;63412.69;5071400;28;20217;-54
2024/01/27 05:46:33;;;;;;;6.07;2.87;;;;;;;4.78;100.00;63427.69;5071247;28;20204;-54
2024/01/27 05:49:02;;;;;;;7.63;2.90;;;;;;;5.04;100.00;63455.44;5071423;28;20369;-53
2024/01/27 05:51:29;;;;;;;8.00;3.63;;;;;;;5.18;100.00;63468.19;5071641;28;20192;-55
2024/01/27 05:53:55;;;;;;;8.17;4.00;;;;;;;5.07;100.00;63459.25;5071402;28;20200;-55
2024/01/27 05:56:20;;;;;;;10.77;3.90;;;;;;;5.03;100.00;63456.84;5053263;28;20786;-55
2024/01/27 05:58:47;;;;;;;11.10;4.97;;;;;;;4.95;100.00;63445.63;5071252;28;20212;-54
2024/01/27 06:01:12;;;;;;;9.20;5.20;;;;;;;4.78;100.00;63425.22;5078616;22;21366;-56
2024/01/27 06:03:42;;;;;;;10.33;4.37;;;;;;;4.71;100.00;63417.59;5078541;22;20223;-54
2024/01/27 06:06:08;;;;;;;10.07;4.90;;;;;;;4.37;100.00;63377.56;5071221;28;20230;-55
2024/01/27 06:08:34;;;;;;;11.10;4.60;;;;;;;4.58;100.00;63405.94;5053287;28;20224;-55
2024/01/27 06:11:06;;;;;;;8.13;3.77;;;;;;;4.48;100.00;63392.03;5053171;28;20274;-55
2024/01/27 06:13:33;;;;;;;9.17;4.00;;;;;;;4.55;100.00;63400.19;5053340;28;20220;-56
2024/01/27 06:15:59;;;;;;;8.20;4.73;;;;;;;4.68;100.00;63413.78;5052993;28;20665;-55
2024/01/27 06:18:25;;;;;;;9.33;4.30;;;;;;;4.91;100.00;63441.84;5052732;28;20216;-54
2024/01/27 06:20:51;;;;;;;9.50;4.17;;;;;;;4.95;100.00;63448.69;5071101;28;20538;-55
2024/01/27 06:23:16;;;;;;;4.83;3.33;;;;;;;4.97;100.00;63448.38;5070571;28;20281;-56
2024/01/27 06:25:43;;;;;;;5.43;3.03;;;;;;;4.48;100.00;63395.06;5070995;28;20195;-56
2024/01/27 06:28:08;;;;;;;4.57;2.57;;;;;;;4.02;100.00;63345.56;5051305;28;20219;-54
2024/01/27 06:30:34;;;;;;;6.93;2.80;;;;;;;4.01;100.00;63342.00;5070754;28;20193;-55
2024/01/27 06:32:59;;;;;;;5.90;2.50;;;;;;;4.15;100.00;63359.16;5036428;28;20713;-55
2024/01/27 06:35:25;;;;;;;7.13;2.63;;;;;;;4.23;100.00;63368.41;5052881;28;20581;-55
2024/01/27 06:37:50;;;;;;;5.77;3.13;;;;;;;3.95;100.00;63334.94;5070904;28;20303;-56
2024/01/27 06:40:22;;;;;;;6.63;2.70;;;;;;;3.93;100.00;63333.31;5070533;28;20209;-56
2024/01/27 06:42:48;;;;;;;8.87;3.37;;;;;;;3.76;100.00;63316.78;5052480;28;20225;-54
2024/01/27 06:45:13;;;;;;;4.13;2.57;;;;;;;5.34;100.00;63487.56;5068833;28;20197;-54
2024/01/27 06:47:39;;;;;;;3.47;2.23;;;;;;;6.62;100.00;63626.47;5069270;28;20215;-53
2024/01/27 06:50:05;;;;;;;4.63;2.30;;;;;;;6.43;100.00;63605.75;5053110;28;20192;-52
2024/01/27 06:52:31;;;;;;;5.07;1.57;;;;;;;5.52;100.00;63504.66;5074088;28;20222;-56
2024/01/27 06:54:57;;;;;;;3.93;2.03;;;;;;;5.22;100.00;63474.50;5074302;28;20201;-55
2024/01/27 06:57:24;;;;;;;1.17;0.90;;;;;;;4.98;100.00;63446.97;5074243;28;20222;-55
2024/01/27 06:59:55;;;;;;;1.53;1.40;;;;;;;5.08;100.00;63455.34;5073941;28;20196;-55
2024/01/27 07:02:26;;;;;;;2.57;0.90;;;;;;;5.02;100.00;63453.28;5074066;28;20274;-55
2024/01/27 07:04:51;;;;;;;1.60;0.83;;;;;;;5.02;100.00;63450.78;5073882;28;20273;-55
2024/01/27 07:07:20;;;;;;;2.80;1.10;;;;;;;5.09;100.00;63461.44;5074206;28;20629;-56
2024/01/27 07:09:46;;;;;;;1.93;1.53;;;;;;;5.09;100.00;63458.38;5073801;28;20674;-55
2024/01/27 07:12:11;;;;;;;1.20;1.00;;;;;;;5.14;100.00;63466.31;5073707;28;20244;-55
2024/01/27 07:14:37;;;;;;;1.07;0.80;;;;;;;5.13;100.00;63462.19;5073946;28;20177;-55
2024/01/27 07:17:05;;;;;;;1.27;0.80;;;;;;;5.24;100.00;63476.66;5073863;28;20218;-55
2024/01/27 07:19:32;;;;;;;4.13;0.97;;;;;;;5.22;100.00;63472.00;5055723;28;20252;-55
2024/01/27 07:21:57;;;;;;;1.20;1.10;;;;;;;5.17;100.00;63469.06;5073431;28;20286;-59
2024/01/27 07:24:23;;;;;;;1.47;0.80;;;;;;;5.14;100.00;63468.81;5073550;28;21038;-55
2024/01/27 07:26:49;;;;;;;2.57;0.90;;;;;;;5.18;100.00;63470.13;5055733;28;20188;-54
2024/01/27 07:29:15;;;;;;;1.70;0.90;;;;;;;5.12;100.00;63459.16;5073831;28;20197;-55
2024/01/27 07:31:41;;;;;;;1.30;0.90;;;;;;;5.03;100.00;63449.34;5073481;28;20733;-56
2024/01/27 07:34:06;;;;;;;0.93;0.90;;;;;;;5.04;100.00;63455.44;5073608;28;20199;-54
2024/01/27 07:36:32;;;;;;;1.33;0.90;;;;;;;4.99;100.00;63450.53;5073336;28;20550;-56
2024/01/27 07:38:58;;;;;;;2.97;1.23;;;;;;;4.97;100.00;63447.81;5073028;28;20272;-56
2024/01/27 07:41:24;;;;;;;1.93;1.20;;;;;;;5.02;100.00;63451.31;5073678;28;20193;-56
2024/01/27 07:43:51;;;;;;;3.07;1.00;;;;;;;4.98;100.00;63446.97;5073477;28;20688;-55
2024/01/27 07:46:16;;;;;;;3.37;1.33;;;;;;;4.93;100.00;63440.97;5072508;28;20193;-56
2024/01/27 07:48:42;;;;;;;3.13;1.00;;;;;;;4.83;100.00;63433.13;5073495;28;20291;-55
2024/01/27 07:51:07;;;;;;;2.17;1.30;;;;;;;4.83;100.00;63428.16;5073137;28;20284;-55
2024/01/27 07:53:34;;;;;;;1.70;1.40;;;;;;;4.86;100.00;63430.88;5071796;28;20216;-56
2024/01/27 07:55:59;;;;;;;3.80;1.40;;;;;;;4.62;100.00;63407.81;5073090;28;20214;-55
2024/01/27 07:58:25;;;;;;;3.33;1.33;;;;;;;4.50;100.00;63394.19;5072992;28;20253;-55
2024/01/27 08:00:51;;;;;;;2.00;1.50;;;;;;;4.59;100.00;63407.03;5072518;28;20202;-58
2024/01/27 08:03:16;;;;;;;2.97;1.87;;;;;;;4.54;100.00;63398.56;5073351;28;20219;-56
2024/01/27 08:05:42;;;;;;;3.30;1.70;;;;;;;4.55;100.00;63402.13;5072827;28;20247;-54
2024/01/27 08:08:07;;;;;;;2.83;1.73;;;;;;;4.55;100.00;63399.63;5070969;28;20204;-53
2024/01/27 08:10:33;;;;;;;3.33;1.70;;;;;;;4.56;100.00;63401.28;5072774;28;20227;-54
2024/01/27 08:12:58;;;;;;;3.00;1.87;;;;;;;4.65;100.00;63410.50;5073103;28;20206;-55
2024/01/27 08:15:24;;;;;;;2.90;1.80;;;;;;;4.60;100.00;63408.13;5072935;28;20669;-55
2024/01/27 08:17:49;;;;;;;4.50;1.50;;;;;;;4.61;100.00;63406.16;5072718;28;20300;-55
2024/01/27 08:20:15;;;;;;;3.30;1.50;;;;;;;4.61;100.00;63409.19;5072907;28;20278;-54
2024/01/27 08:22:41;;;;;;;4.03;2.20;;;;;;;4.68;100.00;63416.28;5072493;28;20216;-55
2024/01/27 08:25:07;;;;;;;2.80;1.63;;;;;;;4.59;100.00;63407.03;5072665;28;20661;-55
2024/01/27 08:27:33;;;;;;;5.13;2.57;;;;;;;4.79;100.00;63425.72;5072745;28;20303;-55
2024/01/27 08:29:58;;;;;;;3.67;1.93;;;;;;;4.68;100.00;63416.81;5072604;28;20275;-57
2024/01/27 08:32:24;;;;;;;3.07;1.83;;;;;;;4.87;100.00;63436.94;5072627;28;20266;-55
2024/01/27 08:34:50;;;;;;;2.43;1.50;;;;;;;4.92;100.00;63444.88;5054469;28;20668;-56
2024/01/27 08:37:18;;;;;;;2.13;1.60;;;;;;;5.11;99.34;63463.06;5072348;28;20222;-55
2024/01/27 08:39:45;;;;;;;2.57;1.80;;;;;;;5.27;97.54;63478.00;5072386;28;20201;-55
2024/01/27 08:42:11;;;;;;;1.73;1.60;;;;;;;5.21;96.60;63473.41;5072245;28;20215;-53
2024/01/27 08:44:38;;;;;;;1.90;1.40;;;;;;;5.64;94.93;63520.22;5072238;28;20662;-54
2024/01/27 08:47:04;;;;;;;2.97;1.93;;;;;;;5.68;92.86;63525.13;5072038;28;20212;-53
2024/01/27 08:49:29;;;;;;;4.43;1.70;;;;;;;5.85;91.32;63541.16;5072198;28;20192;-57
2024/01/27 08:51:55;;;;;;;2.70;1.80;;;;;;;6.07;89.98;63564.03;5072143;28;20212;-54
2024/01/27 08:54:22;;;;;;;2.20;1.43;;;;;;;6.03;90.18;63560.22;5072285;28;20197;-55
2024/01/27 08:56:48;;;;;;;3.00;2.07;;;;;;;6.30;89.01;63592.13;5054266;28;20200;-55
2024/01/27 08:59:13;;;;;;;2.33;1.40;;;;;;;6.41;86.80;63604.13;5072226;28;20183;-57
2024/01/27 09:01:39;;;;;;;3.33;1.70;;;;;;;6.67;85.75;63629.41;5072011;28;20238;-56
2024/01/27 09:04:04;;;;;;;1.90;1.70;;;;;;;6.73;85.52;63635.97;5071691;28;20705;-54
2024/01/27 09:06:30;;;;;;;2.03;1.40;;;;;;;6.62;84.50;63624.53;5070877;28;20280;-55
2024/01/27 09:08:55;;;;;;;1.93;1.07;;;;;;;6.25;85.65;63584.19;5072162;28;20211;-56
2024/01/27 09:11:26;;;;;;;2.77;1.10;;;;;;;6.35;85.62;63597.59;5071764;28;20654;-55
2024/01/27 09:13:53;;;;;;;1.83;1.53;;;;;;;6.40;84.25;63597.50;5071200;28;20213;-53
2024/01/27 09:16:19;;;;;;;1.97;1.43;;;;;;;6.62;83.42;63624.53;5071660;28;20223;-54
2024/01/27 09:18:45;;;;;;;2.63;1.57;;;;;;;6.40;82.15;63602.50;5071796;28;20228;-55
2024/01/27 09:21:11;;;;;;;1.43;1.00;;;;;;;6.49;82.03;63612.84;5053920;28;20675;-55
2024/01/27 09:23:37;;;;;;;3.63;1.30;;;;;;;6.45;82.67;63608.50;5071662;28;20285;-54
2024/01/27 09:26:04;;;;;;;4.00;1.40;;;;;;;6.38;81.82;63600.84;5070937;28;20616;-53
2024/01/27 09:28:29;;;;;;;1.40;1.10;;;;;;;6.47;82.45;63610.13;5071376;28;20224;-53
2024/01/27 09:30:55;;;;;;;1.33;1.10;;;;;;;6.73;81.04;63639.00;5071077;28;20193;-54
2024/01/27 09:33:22;;;;;;;3.53;1.40;;;;;;;6.68;80.99;63635.53;5054174;28;20216;-54
2024/01/27 09:35:52;;;;;;;1.70;1.30;;;;;;;6.32;82.52;63593.78;5052527;28;20193;-54
2024/01/27 09:38:19;;;;;;;2.23;0.80;;;;;;;6.54;80.41;63615.81;5079266;22;20228;-54
2024/01/27 09:40:46;;;;;;;1.93;1.43;;;;;;;6.91;79.44;63657.56;5071706;28;20606;-55
2024/01/27 09:43:14;;;;;;;0.90;0.90;;;;;;;6.90;78.94;63651.44;5071376;28;20216;-63
2024/01/27 09:45:40;;;;;;;3.53;1.63;;;;;;;7.11;78.55;63679.38;5071404;28;20189;-60
2024/01/27 09:48:08;;;;;;;2.20;1.43;;;;;;;7.22;78.69;63691.91;5071792;28;20223;-61
2024/01/27 09:50:34;;;;;;;2.77;1.20;;;;;;;6.12;83.01;63567.53;5071328;28;20733;-60
2024/01/27 09:53:00;;;;;;;1.83;1.13;;;;;;;6.28;85.55;63589.44;5070816;28;20303;-59
2024/01/27 09:55:26;;;;;;;3.73;1.17;;;;;;;6.00;83.69;63559.44;5070111;28;20238;-57
2024/01/27 09:57:52;;;;;;;1.40;1.30;;;;;;;5.81;87.82;63538.75;5053204;28;20227;-58
2024/01/27 10:00:19;;;;;;;2.57;2.00;;;;;;;6.84;100.00;63650.47;5071299;28;20242;-59
2024/01/27 10:02:54;;;;;;;1.50;1.40;;;;;;;6.59;85.02;63620.69;5071088;28;20251;-59
2024/01/27 10:05:20;;;;;;;0.80;0.80;;;;;;;5.69;87.29;63526.22;5071110;28;20195;-62
2024/01/27 10:07:46;;;;;;;1.77;1.30;;;;;;;5.64;89.83;63520.75;5068300;28;20218;-57
2024/01/27 10:10:11;;;;;;;1.20;1.10;;;;;;;6.01;87.06;63558.03;5070439;28;20192;-58
2024/01/27 10:12:44;;;;;;;3.03;1.10;;;;;;;6.22;85.30;63580.38;5071364;28;20283;-56
2024/01/27 10:15:20;;;;;;;2.57;1.17;;;;;;;5.93;86.34;63549.31;5070974;28;20670;-60
2024/01/27 10:17:46;;;;;;;1.30;1.20;;;;;;;5.67;87.92;63523.50;5071130;28;20258;-57
2024/01/27 10:20:15;;;;;;;3.80;1.10;;;;;;;5.52;92.07;63507.69;5070901;28;20212;-58
2024/01/27 10:22:41;;;;;;;4.07;1.80;;;;;;;6.99;100.00;63666.28;5070848;28;20232;-59
2024/01/27 10:25:09;;;;;;;1.43;1.13;;;;;;;6.47;83.95;63610.13;5070673;28;20188;-60
2024/01/27 10:27:34;;;;;;;2.97;1.30;;;;;;;5.67;90.49;63523.50;5070724;28;20219;-61
2024/01/27 10:30:00;;;;;;;2.03;1.40;;;;;;;5.28;94.05;63483.50;5070704;28;20254;-59
2024/01/27 10:32:26;;;;;;;1.80;1.30;;;;;;;5.30;93.39;63485.69;5070410;28;20223;-60
2024/01/27 10:35:10;;;;;;;5.53;1.63;;;;;;;5.29;94.95;63477.13;5070810;28;20256;-58
2024/01/27 10:37:37;;;;;;;4.07;1.40;;;;;;;5.00;94.93;63451.09;5070894;28;20217;-59
2024/01/27 10:40:09;;;;;;;1.13;0.83;;;;;;;4.99;96.25;63448.03;5051936;28;20279;-61
2024/01/27 10:42:36;;;;;;;0.93;0.93;;;;;;;5.01;96.83;63452.16;5069789;28;20725;-58
2024/01/27 10:45:03;;;;;;;1.77;1.60;;;;;;;5.03;96.67;63452.41;5052869;28;20191;-64
2024/01/27 10:47:31;;;;;;;1.00;1.00;;;;;;;5.13;95.86;63463.28;5070444;28;20617;-55
2024/01/27 10:50:00;;;;;;;2.30;1.10;;;;;;;5.02;96.27;63453.81;5070841;28;20202;-58
2024/01/27 10:52:32;;;;;;;1.10;1.00;;;;;;;5.22;94.34;63469.50;5071101;28;20677;-57
2024/01/27 10:55:08;;;;;;;1.30;1.00;;;;;;;5.16;95.02;63465.47;5070698;28;20188;-55
2024/01/27 10:57:37;;;;;;;1.00;0.90;;;;;;;5.13;95.76;63462.19;5070762;28;20264;-58
2024/01/27 11:00:06;;;;;;;2.70;1.20;;;;;;;5.01;95.62;63450.22;5070419;28;20183;-59
2024/01/27 11:02:35;;;;;;;1.23;1.13;;;;;;;4.96;96.93;63444.78;5070653;28;20218;-59
2024/01/27 11:05:03;;;;;;;1.73;1.30;;;;;;;5.04;97.81;63458.50;5052286;28;20266;-59
2024/01/27 11:07:33;;;;;;;2.27;1.40;;;;;;;4.84;98.89;63431.19;5070491;28;20208;-60
2024/01/27 11:09:59;;;;;;;2.63;1.60;;;;;;;4.81;99.70;63427.91;5070650;28;20187;-58
2024/01/27 11:12:26;;;;;;;1.43;1.20;;;;;;;4.76;100.00;63422.47;5070303;28;20211;-57
2024/01/27 11:14:52;;;;;;;4.47;1.40;;;;;;;4.73;100.00;63421.69;5052163;28;20196;-58
2024/01/27 11:17:19;;;;;;;2.40;1.53;;;;;;;4.68;100.00;63416.28;5070555;28;20213;-64
2024/01/27 11:19:46;;;;;;;1.17;1.13;;;;;;;4.67;100.00;63410.19;5052309;28;20673;-61
2024/01/27 11:22:27;;;;;;;1.57;1.43;;;;;;;4.62;100.00;63409.75;5070305;28;20559;-59
2024/01/27 11:25:18;;;;;;;1.70;1.60;;;;;;;4.66;100.00;63411.59;5070338;28;20248;-58
2024/01/27 11:27:46;;;;;;;2.73;1.97;;;;;;;4.82;100.00;63432.06;5070071;28;20721;-59
2024/01/27 11:30:35;;;;;;;2.03;1.33;;;;;;;4.78;100.00;63427.16;5070245;28;20189;-59
2024/01/27 11:33:03;;;;;;;2.77;2.00;;;;;;;4.68;100.00;63414.31;5036355;28;20346;-59
2024/01/27 11:35:28;;;;;;;2.20;1.70;;;;;;;4.54;100.00;63401.03;5051900;28;20289;-59